Overview Statistics Trail Chart Weather Telemetry Raw packets
 

This is the latest recevied weather packets stored in our database for station/object HS3UAA-1. If no packets are shown the sender has not sent any weather packets the latest 10 day(s).

<< 87 88 89 90 91 92 93 >>
Time Temp. Humidity Pressure Rain* Wind** Luminosity Snow
1787945478 32.78° C 51% 995 hPa - - 0 W/m² -
1787945155 32.78° C 51% 995 hPa - - 0 W/m² -
1787944833 32.78° C 51% 995 hPa - - 0 W/m² -
1787944514 32.78° C 51% 995 hPa - - 0 W/m² -
1787944189 32.78° C 51% 995 hPa - - 0 W/m² -
1787943867 32.78° C 51% 996 hPa - - 0 W/m² -
1787943546 33.33° C 50% 996 hPa - - 0 W/m² -
1787943223 32.78° C 51% 996 hPa - - 0 W/m² -
1787942901 33.33° C 50% 996 hPa - - 0 W/m² -
1787942579 33.89° C 48% 996 hPa - - 0 W/m² -
1787942257 32.78° C 51% 996 hPa - - 0 W/m² -
1787941935 33.33° C 49% 996 hPa - - 0 W/m² -
1787941613 33.89° C 49% 996 hPa - - 0 W/m² -
1787941291 33.33° C 50% 996 hPa - - 0 W/m² -
1787940969 33.33° C 50% 996 hPa - - 0 W/m² -
1787940647 33.33° C 49% 996 hPa - - 0 W/m² -
1787940325 33.89° C 49% 996 hPa - - 0 W/m² -
1787939985 33.33° C 50% 996 hPa - - 0 W/m² -
1787939663 33.33° C 49% 996 hPa - - 0 W/m² -
1787939218 33.89° C 48% 996 hPa - - 0 W/m² -
1787938896 33.33° C 50% 996 hPa - - 0 W/m² -
1787938574 33.33° C 50% 996 hPa - - 0 W/m² -
1787938252 33.89° C 48% 996 hPa - - 0 W/m² -
1787937930 33.33° C 50% 997 hPa - - 0 W/m² -
1787937608 33.89° C 49% 997 hPa - - 0 W/m² -

* Rain since midnight (hover to see other rain measurements)
** Current wind speed in m/s (hover to see current wind gust speed)